Time;durP1;ratioP1;P1;durP2;ratioP2;P2;SDS_P1;SDS_P2;PMS_P1;PMS_P2;Temp;Humidity;BMP_temperature;BMP_pressure;BME280_temperature;BME280_humidity;BME280_pressure;Samples;Min_cycle;Max_cycle;Signal;HPM_P1;HPM_P2
2024/03/07 00:01:07;;;;;;;;;;;;;;;21.12;33.13;101084.61;102753;1292;60953;-80
2024/03/07 00:03:33;;;;;;;;;;;;;;;21.11;33.23;101090.90;102661;1292;60588;-77
2024/03/07 00:05:58;;;;;;;;;;;;;;;21.12;33.16;101085.84;102781;1295;60584;-79
2024/03/07 00:08:24;;;;;;;;;;;;;;;21.12;33.26;101082.09;102677;1291;73978;-78
2024/03/07 00:10:50;;;;;;;;;;;;;;;21.12;33.24;101082.77;102937;1294;60632;-79
2024/03/07 00:13:15;;;;;;;;;;;;;;;21.12;33.17;101083.48;102778;1295;60653;-79
2024/03/07 00:15:41;;;;;;;;;;;;;;;21.12;33.14;101083.48;102774;1294;60609;-81
2024/03/07 00:18:07;;;;;;;;;;;;;;;21.13;33.13;101084.17;102796;1295;61769;-80
2024/03/07 00:20:32;;;;;;;;;;;;;;;21.13;33.04;101082.19;102830;1295;60552;-79
2024/03/07 00:22:58;;;;;;;;;;;;;;;21.13;33.10;101081.11;102622;1297;62123;-81
2024/03/07 00:25:24;;;;;;;;;;;;;;;21.13;33.04;101072.34;102773;1293;60975;-79
2024/03/07 00:27:52;;;;;;;;;;;;;;;21.13;33.12;101072.17;102783;1294;61156;-78
2024/03/07 00:30:18;;;;;;;;;;;;;;;21.13;33.08;101066.43;102739;1291;73699;-79
2024/03/07 00:32:45;;;;;;;;;;;;;;;21.13;33.01;101066.41;102718;1298;60731;-80
2024/03/07 00:35:10;;;;;;;;;;;;;;;21.13;33.17;101069.11;103048;1290;60520;-80
2024/03/07 00:37:36;;;;;;;;;;;;;;;21.13;33.10;101067.11;102498;1295;61804;-79
2024/03/07 00:40:03;;;;;;;;;;;;;;;21.13;33.07;101066.75;102670;1297;60607;-78
2024/03/07 00:42:28;;;;;;;;;;;;;;;21.13;33.07;101063.35;102678;1295;61742;-80
2024/03/07 00:44:54;;;;;;;;;;;;;;;21.14;33.19;101057.77;102705;1295;60563;-80
2024/03/07 00:47:19;;;;;;;;;;;;;;;21.14;33.15;101058.85;102838;1293;61808;-78
2024/03/07 00:49:46;;;;;;;;;;;;;;;21.14;33.09;101055.43;102767;1295;73739;-79
2024/03/07 00:52:12;;;;;;;;;;;;;;;21.15;33.00;101056.30;102770;1294;61763;-79
2024/03/07 00:54:38;;;;;;;;;;;;;;;21.15;33.09;101056.10;102670;1295;60683;-80
2024/03/07 00:57:04;;;;;;;;;;;;;;;21.15;32.98;101050.54;102808;1295;61654;-81
2024/03/07 00:59:29;;;;;;;;;;;;;;;21.15;32.98;101049.48;102813;1299;61227;-81
2024/03/07 01:01:55;;;;;;;;;;;;;;;21.15;33.06;101048.95;102670;1295;61684;-79
2024/03/07 01:04:22;;;;;;;;;;;;;;;21.15;33.04;101051.42;102791;1295;60600;-81
2024/03/07 01:06:48;;;;;;;;;;;;;;;21.15;33.03;101048.04;102821;1293;60593;-80
2024/03/07 01:09:14;;;;;;;;;;;;;;;21.15;32.96;101048.58;102843;1295;60619;-80
2024/03/07 01:11:40;;;;;;;;;;;;;;;21.15;33.03;101049.85;102630;1295;72388;-80
2024/03/07 01:14:09;;;;;;;;;;;;;;;21.16;33.05;101049.77;102713;1295;73763;-79
2024/03/07 01:16:35;;;;;;;;;;;;;;;21.15;33.04;101053.55;102679;1297;60632;-79
2024/03/07 01:19:01;;;;;;;;;;;;;;;21.16;33.03;101055.63;102740;1295;61574;-81
2024/03/07 01:21:27;;;;;;;;;;;;;;;21.16;33.01;101062.66;102609;1297;60632;-80
2024/03/07 01:23:52;;;;;;;;;;;;;;;21.16;32.90;101061.91;102693;1295;60843;-79
2024/03/07 01:26:18;;;;;;;;;;;;;;;21.16;32.98;101062.45;102747;1292;60573;-80
2024/03/07 01:28:44;;;;;;;;;;;;;;;21.16;33.01;101062.32;102687;1298;60533;-80
2024/03/07 01:31:10;;;;;;;;;;;;;;;21.16;32.91;101064.44;102829;1298;60503;-80
2024/03/07 01:33:36;;;;;;;;;;;;;;;21.16;32.91;101069.96;102733;1291;61143;-79
2024/03/07 01:36:01;;;;;;;;;;;;;;;21.16;32.94;101073.89;102767;1295;60611;-81
2024/03/07 01:38:27;;;;;;;;;;;;;;;21.16;33.00;101076.04;102752;1295;60634;-79
2024/03/07 01:40:54;;;;;;;;;;;;;;;21.16;32.87;101077.98;102723;1295;60527;-79
2024/03/07 01:43:21;;;;;;;;;;;;;;;21.16;32.91;101075.70;102768;1294;60620;-81
2024/03/07 01:45:47;;;;;;;;;;;;;;;21.16;32.99;101073.17;102703;1295;61687;-79
2024/03/07 01:48:13;;;;;;;;;;;;;;;21.16;32.83;101074.06;102797;1291;60588;-79
2024/03/07 01:50:38;;;;;;;;;;;;;;;21.17;32.89;101078.67;102735;1299;61774;-79
2024/03/07 01:53:07;;;;;;;;;;;;;;;21.17;32.80;101079.75;102684;1295;60548;-79
2024/03/07 01:55:33;;;;;;;;;;;;;;;21.17;32.95;101080.66;102614;1291;72703;-79
2024/03/07 01:57:59;;;;;;;;;;;;;;;21.18;32.89;101076.49;102641;1299;60675;-82
2024/03/07 02:00:25;;;;;;;;;;;;;;;21.17;33.00;101076.68;102764;1298;60675;-80
2024/03/07 02:02:51;;;;;;;;;;;;;;;21.17;32.96;101077.76;102680;1291;60909;-82
2024/03/07 02:05:16;;;;;;;;;;;;;;;21.18;32.76;101080.26;102695;1292;61576;-80
2024/03/07 02:07:45;;;;;;;;;;;;;;;21.18;32.81;101076.49;102775;1296;60607;-80
2024/03/07 02:10:11;;;;;;;;;;;;;;;21.17;32.84;101076.86;102267;1292;639401;-81
2024/03/07 02:12:36;;;;;;;;;;;;;;;21.18;32.94;101076.30;102727;1296;61811;-80
2024/03/07 02:15:02;;;;;;;;;;;;;;;21.18;32.94;101080.77;102688;1292;60669;-80
2024/03/07 02:17:28;;;;;;;;;;;;;;;21.18;32.82;101078.60;102535;1302;61882;-78
2024/03/07 02:19:54;;;;;;;;;;;;;;;21.19;32.92;101078.58;102490;1298;61455;-80
2024/03/07 02:22:19;;;;;;;;;;;;;;;21.18;32.90;101078.95;102689;1301;62188;-78
2024/03/07 02:24:46;;;;;;;;;;;;;;;21.18;32.89;101078.57;102565;1300;60662;-79
2024/03/07 02:27:12;;;;;;;;;;;;;;;21.19;32.87;101076.95;102595;1298;60704;-79
2024/03/07 02:29:37;;;;;;;;;;;;;;;21.19;32.80;101078.39;102483;1298;60643;-79
2024/03/07 02:32:03;;;;;;;;;;;;;;;21.19;32.75;101074.79;102495;1299;60557;-78
2024/03/07 02:34:29;;;;;;;;;;;;;;;21.19;32.92;101076.23;102478;1299;61012;-80
2024/03/07 02:36:55;;;;;;;;;;;;;;;21.19;32.67;101077.12;102568;1300;60697;-80
2024/03/07 02:39:20;;;;;;;;;;;;;;;21.19;32.69;101081.94;102394;1300;62050;-80
2024/03/07 02:41:47;;;;;;;;;;;;;;;21.19;32.80;101081.92;102507;1308;60770;-81
2024/03/07 02:44:14;;;;;;;;;;;;;;;21.19;32.74;101082.81;102591;1295;74562;-80
2024/03/07 02:46:40;;;;;;;;;;;;;;;21.20;32.74;101087.80;102468;1295;60524;-80
2024/03/07 02:49:05;;;;;;;;;;;;;;;21.20;32.77;101092.42;102655;1297;60589;-79
2024/03/07 02:51:31;;;;;;;;;;;;;;;21.20;32.67;101094.75;102688;1297;60581;-79
2024/03/07 02:53:57;;;;;;;;;;;;;;;21.20;32.73;101099.02;102741;1296;60658;-79
2024/03/07 02:56:23;;;;;;;;;;;;;;;21.20;32.74;101104.59;102697;1291;61564;-79
2024/03/07 02:58:49;;;;;;;;;;;;;;;21.20;32.70;101105.64;102755;1292;60594;-80
2024/03/07 03:01:14;;;;;;;;;;;;;;;21.20;32.75;101106.56;102780;1292;61171;-79
2024/03/07 03:03:42;;;;;;;;;;;;;;;21.20;32.64;101104.39;102686;1297;60668;-79
2024/03/07 03:06:08;;;;;;;;;;;;;;;21.21;32.83;101103.99;102674;1292;74622;-80
2024/03/07 03:08:34;;;;;;;;;;;;;;;21.21;32.64;101101.69;102727;1298;61766;-79
2024/03/07 03:11:00;;;;;;;;;;;;;;;21.21;32.68;101097.77;102707;1292;61635;-79
2024/03/07 03:13:29;;;;;;;;;;;;;;;21.21;32.64;101104.13;102626;1297;60625;-80
2024/03/07 03:15:57;;;;;;;;;;;;;;;21.22;32.66;101102.00;102698;1292;74641;-79
2024/03/07 03:18:26;;;;;;;;;;;;;;;21.22;32.67;101101.44;102653;1292;61379;-78
2024/03/07 03:20:52;;;;;;;;;;;;;;;21.22;32.63;101106.10;102769;1295;60549;-80
2024/03/07 03:23:18;;;;;;;;;;;;;;;21.22;32.70;101108.25;102802;1294;60537;-80
2024/03/07 03:25:45;;;;;;;;;;;;;;;21.22;32.59;101112.72;102772;1292;60632;-78
2024/03/07 03:28:10;;;;;;;;;;;;;;;21.22;32.79;101110.02;102808;1293;60598;-79
2024/03/07 03:30:37;;;;;;;;;;;;;;;21.23;32.68;101118.03;102884;1297;61008;-78
2024/03/07 03:33:02;;;;;;;;;;;;;;;21.22;32.62;101117.50;102751;1292;60851;-80
2024/03/07 03:35:28;;;;;;;;;;;;;;;21.22;32.64;101115.74;102752;1294;60668;-80
2024/03/07 03:37:53;;;;;;;;;;;;;;;21.22;32.57;101115.52;102640;1292;60977;-78
2024/03/07 03:40:19;;;;;;;;;;;;;;;21.23;32.60;101125.17;102744;1295;60606;-80
2024/03/07 03:42:44;;;;;;;;;;;;;;;21.23;32.56;101115.28;102819;1291;61896;-78
2024/03/07 03:45:15;;;;;;;;;;;;;;;21.23;32.57;101118.33;102762;1294;60460;-78
2024/03/07 03:47:42;;;;;;;;;;;;;;;21.23;32.55;101119.79;102777;1291;74767;-79
2024/03/07 03:50:15;;;;;;;;;;;;;;;21.24;32.53;101115.09;102887;1292;60981;-79
2024/03/07 03:52:41;;;;;;;;;;;;;;;21.24;32.53;101115.42;102682;1292;60741;-79
2024/03/07 03:55:09;;;;;;;;;;;;;;;21.24;32.44;101118.10;102616;1292;60600;-80
2024/03/07 03:57:35;;;;;;;;;;;;;;;21.24;32.40;101115.98;102824;1292;60897;-82
2024/03/07 04:00:00;;;;;;;;;;;;;;;21.24;32.33;101118.27;102860;1292;60670;-80
2024/03/07 04:02:26;;;;;;;;;;;;;;;21.24;32.49;101115.08;102676;1292;61303;-80
2024/03/07 04:04:52;;;;;;;;;;;;;;;21.25;32.49;101119.33;102810;1292;60514;-79
2024/03/07 04:07:18;;;;;;;;;;;;;;;21.25;32.53;101112.52;102859;1292;60620;-79
2024/03/07 04:09:46;;;;;;;;;;;;;;;21.25;32.55;101113.54;102772;1292;60511;-79
2024/03/07 04:12:12;;;;;;;;;;;;;;;21.25;32.59;101115.17;102820;1294;61737;-80
2024/03/07 04:14:41;;;;;;;;;;;;;;;21.25;32.42;101110.54;102856;1292;60607;-79
2024/03/07 04:17:07;;;;;;;;;;;;;;;21.25;32.47;101108.56;102701;1292;73267;-80
2024/03/07 04:19:38;;;;;;;;;;;;;;;21.25;32.33;101107.99;102701;1292;74348;-79
2024/03/07 04:22:04;;;;;;;;;;;;;;;21.25;32.40;101104.76;102665;1292;60496;-78
2024/03/07 04:24:32;;;;;;;;;;;;;;;21.26;32.45;101103.33;102650;1292;61881;-80
2024/03/07 04:27:00;;;;;;;;;;;;;;;21.26;32.44;101108.14;102739;1292;72257;-79
2024/03/07 04:29:26;;;;;;;;;;;;;;;21.26;32.44;101116.73;102708;1296;73372;-79
2024/03/07 04:31:51;;;;;;;;;;;;;;;21.26;32.38;101117.28;102643;1291;60587;-81
2024/03/07 04:34:17;;;;;;;;;;;;;;;21.26;32.44;101119.05;102732;1292;60610;-80
2024/03/07 04:36:43;;;;;;;;;;;;;;;21.26;32.41;101112.61;102656;1292;61847;-80
2024/03/07 04:39:19;;;;;;;;;;;;;;;21.26;32.39;101113.70;102726;1295;61306;-79
2024/03/07 04:41:45;;;;;;;;;;;;;;;21.26;32.36;101118.31;102797;1294;60521;-80
2024/03/07 04:44:13;;;;;;;;;;;;;;;21.26;32.43;101119.05;102750;1292;61045;-79
2024/03/07 04:46:42;;;;;;;;;;;;;;;21.28;32.33;101130.06;102723;1294;73614;-80
2024/03/07 04:49:09;;;;;;;;;;;;;;;21.28;32.39;101133.80;102827;1292;73602;-80
2024/03/07 04:51:34;;;;;;;;;;;;;;;21.28;32.46;101127.53;102853;1292;61093;-80
2024/03/07 04:54:00;;;;;;;;;;;;;;;21.28;32.28;101127.54;102692;1292;60630;-81
2024/03/07 04:56:25;;;;;;;;;;;;;;;21.29;32.46;101128.55;102755;1294;62146;-80
2024/03/07 04:58:52;;;;;;;;;;;;;;;21.29;32.31;101129.77;102838;1294;60495;-80
2024/03/07 05:01:18;;;;;;;;;;;;;;;21.29;32.40;101130.86;102686;1292;61851;-81
2024/03/07 05:03:43;;;;;;;;;;;;;;;21.29;32.36;101129.63;102819;1292;60545;-79
2024/03/07 05:06:09;;;;;;;;;;;;;;;21.28;32.32;101125.73;102824;1292;60561;-79
2024/03/07 05:08:34;;;;;;;;;;;;;;;21.28;32.28;101131.84;102703;1292;60598;-79
2024/03/07 05:11:00;;;;;;;;;;;;;;;21.28;32.28;101131.11;102707;1290;61199;-79
2024/03/07 05:13:26;;;;;;;;;;;;;;;21.27;32.17;101130.96;102755;1292;60613;-79
2024/03/07 05:15:52;;;;;;;;;;;;;;;21.27;32.24;101127.05;102768;1292;60629;-79
2024/03/07 05:18:18;;;;;;;;;;;;;;;21.26;32.20;101125.48;102750;1296;61063;-81
2024/03/07 05:20:44;;;;;;;;;;;;;;;21.25;32.18;101129.14;102739;1292;60715;-79
2024/03/07 05:23:10;;;;;;;;;;;;;;;21.24;32.11;101133.66;102761;1292;73704;-80
2024/03/07 05:25:36;;;;;;;;;;;;;;;21.24;32.02;101142.48;102735;1292;60588;-79
2024/03/07 05:28:02;;;;;;;;;;;;;;;21.21;32.05;101144.98;102736;1292;60665;-82
2024/03/07 05:30:29;;;;;;;;;;;;;;;21.18;31.99;101142.34;102633;1292;60594;-80
2024/03/07 05:32:55;;;;;;;;;;;;;;;21.14;31.79;101148.30;102898;1295;61851;-79
2024/03/07 05:35:22;;;;;;;;;;;;;;;21.10;31.86;101144.27;102802;1297;60982;-79
2024/03/07 05:37:47;;;;;;;;;;;;;;;21.07;31.77;101143.61;102728;1292;60982;-79
2024/03/07 05:40:13;;;;;;;;;;;;;;;21.04;31.62;101148.80;102868;1294;60649;-80
2024/03/07 05:42:39;;;;;;;;;;;;;;;21.02;31.47;101144.43;102853;1292;60591;-81
2024/03/07 05:45:07;;;;;;;;;;;;;;;21.00;31.65;101149.05;103060;1289;60588;-80
2024/03/07 05:47:33;;;;;;;;;;;;;;;20.97;31.48;101152.67;103554;1289;60462;-78
2024/03/07 05:49:59;;;;;;;;;;;;;;;20.92;31.41;101155.45;103693;1289;60658;-78
2024/03/07 05:52:24;;;;;;;;;;;;;;;20.85;31.34;101157.67;103814;1294;60609;-78
2024/03/07 05:54:50;;;;;;;;;;;;;;;20.80;31.37;101160.17;103794;1292;60469;-82
2024/03/07 05:57:15;;;;;;;;;;;;;;;20.74;31.27;101158.03;103777;1292;60601;-80
2024/03/07 05:59:41;;;;;;;;;;;;;;;20.69;31.21;101161.39;104326;1291;60538;-80
2024/03/07 06:02:06;;;;;;;;;;;;;;;20.66;31.25;101161.96;104942;1289;60487;-79
2024/03/07 06:04:33;;;;;;;;;;;;;;;20.62;31.26;101162.37;104571;1289;60466;-80
2024/03/07 06:06:59;;;;;;;;;;;;;;;20.58;31.36;101165.43;104401;1291;60661;-80
2024/03/07 06:09:26;;;;;;;;;;;;;;;20.56;31.25;101166.88;104436;1292;60488;-80
2024/03/07 06:11:52;;;;;;;;;;;;;;;20.52;31.10;101168.52;104240;1292;60559;-80
2024/03/07 06:14:18;;;;;;;;;;;;;;;20.51;31.12;101171.99;104399;1292;60579;-80
2024/03/07 06:16:43;;;;;;;;;;;;;;;20.49;30.98;101171.79;104179;1291;59439;-79
2024/03/07 06:19:09;;;;;;;;;;;;;;;20.46;31.02;101175.33;104201;1292;60492;-79
2024/03/07 06:21:35;;;;;;;;;;;;;;;20.43;30.91;101176.25;104319;1294;61796;-79
2024/03/07 06:24:01;;;;;;;;;;;;;;;20.40;30.98;101178.02;104388;1291;60374;-79
2024/03/07 06:26:37;;;;;;;;;;;;;;;20.38;30.87;101183.35;104168;1292;60575;-79
2024/03/07 06:29:05;;;;;;;;;;;;;;;20.32;30.71;101180.50;103895;1294;73729;-80
2024/03/07 06:31:31;;;;;;;;;;;;;;;20.27;30.81;101179.42;104225;1291;60494;-79
2024/03/07 06:33:57;;;;;;;;;;;;;;;20.23;30.80;101180.14;104118;1295;59374;-79
2024/03/07 06:36:23;;;;;;;;;;;;;;;20.24;30.58;101178.83;104215;1292;60569;-80
2024/03/07 06:38:49;;;;;;;;;;;;;;;20.26;30.72;101180.89;104327;1292;60646;-81
2024/03/07 06:41:15;;;;;;;;;;;;;;;20.28;30.63;101181.09;104268;1292;60137;-80
2024/03/07 06:43:40;;;;;;;;;;;;;;;20.32;30.82;101183.38;103902;1291;59719;-80
2024/03/07 06:46:09;;;;;;;;;;;;;;;20.35;30.73;101184.61;104276;1292;60429;-79
2024/03/07 06:48:35;;;;;;;;;;;;;;;20.39;30.48;101186.30;104330;1294;71567;-81
2024/03/07 06:51:01;;;;;;;;;;;;;;;20.43;30.62;101193.73;104658;1292;73664;-80
2024/03/07 06:53:28;;;;;;;;;;;;;;;20.45;30.45;101197.91;104566;1292;59385;-81
2024/03/07 06:55:54;;;;;;;;;;;;;;;20.44;30.52;101201.59;104490;1292;59478;-80
2024/03/07 06:58:22;;;;;;;;;;;;;;;20.42;30.83;101201.86;104538;1292;60613;-81
2024/03/07 07:00:51;;;;;;;;;;;;;;;20.38;30.95;101206.39;104628;1294;74740;-81
2024/03/07 07:03:18;;;;;;;;;;;;;;;20.35;30.89;101204.42;104715;1292;61024;-81
2024/03/07 07:05:44;;;;;;;;;;;;;;;20.34;30.96;101211.88;104287;1291;60587;-80
2024/03/07 07:08:10;;;;;;;;;;;;;;;20.33;31.04;101216.17;104448;1292;60400;-79
2024/03/07 07:10:36;;;;;;;;;;;;;;;20.34;30.99;101221.48;104516;1292;59147;-80
2024/03/07 07:13:04;;;;;;;;;;;;;;;20.37;30.92;101223.42;105672;1291;58485;-79
2024/03/07 07:15:29;;;;;;;;;;;;;;;20.42;30.75;101224.56;105711;1291;58307;-80
2024/03/07 07:17:55;;;;;;;;;;;;;;;20.47;30.93;101221.63;105796;1291;58198;-78
2024/03/07 07:20:20;;;;;;;;;;;;;;;20.51;30.93;101224.95;105761;1292;58432;-79
2024/03/07 07:22:47;;;;;;;;;;;;;;;20.55;30.76;101224.30;105765;1292;58312;-79
2024/03/07 07:25:16;;;;;;;;;;;;;;;20.59;30.82;101228.01;105737;1292;58886;-78
2024/03/07 07:27:49;;;;;;;;;;;;;;;20.63;30.82;101234.39;105730;1291;58495;-79
2024/03/07 07:30:15;;;;;;;;;;;;;;;20.67;30.67;101233.98;105810;1292;73584;-79
2024/03/07 07:32:41;;;;;;;;;;;;;;;20.69;30.80;101237.21;105909;1292;58542;-78
2024/03/07 07:35:11;;;;;;;;;;;;;;;20.72;30.76;101242.61;105722;1291;58404;-79
2024/03/07 07:37:41;;;;;;;;;;;;;;;20.74;30.77;101239.98;105900;1291;72219;-79
2024/03/07 07:40:08;;;;;;;;;;;;;;;20.77;30.86;101245.52;105703;1292;73478;-79
2024/03/07 07:42:38;;;;;;;;;;;;;;;20.80;30.80;101245.00;105739;1292;58956;-80
2024/03/07 07:45:12;;;;;;;;;;;;;;;20.82;30.73;101244.69;105685;1291;61522;-79
2024/03/07 07:47:45;;;;;;;;;;;;;;;20.85;30.86;101246.63;105741;1292;74055;-79
2024/03/07 07:50:17;;;;;;;;;;;;;;;20.87;30.78;101251.30;104882;1294;75051;-81
2024/03/07 07:52:50;;;;;;;;;;;;;;;20.89;30.75;101252.27;104345;1297;60068;-79
2024/03/07 07:55:17;;;;;;;;;;;;;;;20.90;30.65;101257.59;104658;1292;60108;-81
2024/03/07 07:57:43;;;;;;;;;;;;;;;20.84;30.62;101254.04;104513;1292;60934;-79
2024/03/07 08:00:11;;;;;;;;;;;;;;;20.69;30.67;101254.43;104305;1291;74367;-77
2024/03/07 08:02:37;;;;;;;;;;;;;;;20.63;30.97;101258.86;104105;1292;60389;-78
2024/03/07 08:05:05;;;;;;;;;;;;;;;20.64;30.72;101259.34;104264;1294;60503;-79
2024/03/07 08:07:31;;;;;;;;;;;;;;;20.65;30.89;101262.85;104385;1292;73346;-80
2024/03/07 08:09:56;;;;;;;;;;;;;;;20.61;30.69;101258.27;104491;1292;60475;-80
2024/03/07 08:12:22;;;;;;;;;;;;;;;20.52;30.68;101253.80;104193;1291;59739;-82
2024/03/07 08:14:48;;;;;;;;;;;;;;;20.48;30.76;101250.30;103953;1294;59214;-81
2024/03/07 08:17:14;;;;;;;;;;;;;;;20.41;30.51;101253.77;104492;1291;58590;-81
2024/03/07 08:19:40;;;;;;;;;;;;;;;20.32;30.65;101251.27;104692;1292;60423;-80
2024/03/07 08:22:06;;;;;;;;;;;;;;;20.16;30.65;101243.33;104572;1292;60591;-81
2024/03/07 08:24:32;;;;;;;;;;;;;;;20.10;30.58;101248.11;104442;1292;60520;-80
2024/03/07 08:26:58;;;;;;;;;;;;;;;19.91;30.28;101248.19;104402;1291;60489;-79
2024/03/07 08:29:24;;;;;;;;;;;;;;;19.69;30.44;101252.48;104300;1292;60534;-80
2024/03/07 08:31:49;;;;;;;;;;;;;;;19.70;30.41;101254.19;104672;1294;60598;-79
2024/03/07 08:34:15;;;;;;;;;;;;;;;19.75;30.57;101251.05;104408;1291;60594;-79
2024/03/07 08:36:41;;;;;;;;;;;;;;;19.81;30.60;101250.90;104409;1292;60700;-79
2024/03/07 08:39:10;;;;;;;;;;;;;;;19.87;30.49;101250.58;104604;1291;60554;-81
2024/03/07 08:41:40;;;;;;;;;;;;;;;19.93;30.51;101250.06;104494;1292;72669;-79
2024/03/07 08:44:06;;;;;;;;;;;;;;;19.97;30.56;101245.15;104449;1292;73563;-80
2024/03/07 08:46:32;;;;;;;;;;;;;;;20.02;30.43;101248.95;104237;1294;60592;-80
2024/03/07 08:48:58;;;;;;;;;;;;;;;20.08;30.65;101250.02;104361;1292;60548;-79
2024/03/07 08:51:23;;;;;;;;;;;;;;;20.14;30.45;101248.63;104414;1292;60582;-79
2024/03/07 08:53:50;;;;;;;;;;;;;;;19.97;30.28;101249.42;104572;1292;60397;-79
2024/03/07 08:56:15;;;;;;;;;;;;;;;19.65;30.17;101250.77;104441;1292;60515;-79
2024/03/07 08:58:42;;;;;;;;;;;;;;;19.53;30.48;101248.61;104437;1292;60620;-80
2024/03/07 09:01:07;;;;;;;;;;;;;;;19.57;30.47;101251.92;103969;1292;58791;-79
2024/03/07 09:03:33;;;;;;;;;;;;;;;19.60;30.53;101247.30;103967;1292;59500;-80
2024/03/07 09:05:58;;;;;;;;;;;;;;;19.66;30.53;101246.77;104070;1292;59324;-79
2024/03/07 09:08:24;;;;;;;;;;;;;;;19.75;30.78;101247.50;104278;1292;60521;-80
2024/03/07 09:10:49;;;;;;;;;;;;;;;19.85;30.81;101248.20;104111;1292;60604;-80
2024/03/07 09:13:15;;;;;;;;;;;;;;;19.93;30.85;101240.02;104169;1292;60750;-80
2024/03/07 09:15:41;;;;;;;;;;;;;;;19.99;30.75;101235.37;103954;1292;60681;-79
2024/03/07 09:18:08;;;;;;;;;;;;;;;20.03;30.83;101244.26;104253;1292;59270;-81
2024/03/07 09:20:33;;;;;;;;;;;;;;;20.05;30.76;101243.42;104552;1292;60457;-81
2024/03/07 09:23:03;;;;;;;;;;;;;;;20.08;30.69;101243.41;104645;1292;60600;-82
2024/03/07 09:25:32;;;;;;;;;;;;;;;20.13;30.76;101247.59;104456;1298;72732;-80
2024/03/07 09:28:01;;;;;;;;;;;;;;;20.19;30.88;101249.73;104318;1292;73831;-82
2024/03/07 09:30:27;;;;;;;;;;;;;;;20.26;30.88;101247.02;104393;1294;60546;-82
2024/03/07 09:32:56;;;;;;;;;;;;;;;20.30;31.04;101247.11;104847;1292;60480;-81
2024/03/07 09:35:22;;;;;;;;;;;;;;;20.34;30.79;101245.11;104706;1295;72636;-81
2024/03/07 09:37:47;;;;;;;;;;;;;;;20.37;30.74;101245.10;104617;1295;60486;-80
2024/03/07 09:40:13;;;;;;;;;;;;;;;20.39;30.79;101243.16;104597;1292;60546;-82
2024/03/07 09:42:48;;;;;;;;;;;;;;;20.43;30.78;101243.31;104500;1292;60598;-79
2024/03/07 09:45:18;;;;;;;;;;;;;;;20.47;30.98;101246.84;104472;1292;72502;-80
2024/03/07 09:47:48;;;;;;;;;;;;;;;20.51;31.18;101243.73;104594;1292;73621;-79
2024/03/07 09:50:18;;;;;;;;;;;;;;;20.53;31.15;101247.66;104742;1292;60393;-83
2024/03/07 09:52:44;;;;;;;;;;;;;;;20.52;31.18;101246.64;104549;1292;60250;-81
2024/03/07 09:55:10;;;;;;;;;;;;;;;20.53;31.47;101246.27;104339;1292;60592;-81
2024/03/07 09:57:35;;;;;;;;;;;;;;;20.28;30.95;101249.36;104865;1294;59284;-82
2024/03/07 10:00:02;;;;;;;;;;;;;;;19.83;30.71;101248.81;104731;1292;59266;-80
2024/03/07 10:02:29;;;;;;;;;;;;;;;19.70;30.81;101246.38;104659;1294;60569;-81
2024/03/07 10:04:54;;;;;;;;;;;;;;;19.63;30.91;101249.41;104469;1294;60489;-82
2024/03/07 10:07:20;;;;;;;;;;;;;;;19.24;30.40;101246.67;104686;1292;60527;-79
2024/03/07 10:09:45;;;;;;;;;;;;;;;19.00;30.49;101244.60;104415;1292;61805;-79
2024/03/07 10:12:15;;;;;;;;;;;;;;;18.93;30.47;101243.21;104686;1292;60344;-80
2024/03/07 10:14:50;;;;;;;;;;;;;;;18.86;30.33;101243.20;104753;1293;60153;-81
2024/03/07 10:17:17;;;;;;;;;;;;;;;18.79;30.32;101242.31;104446;1297;72879;-81
2024/03/07 10:19:47;;;;;;;;;;;;;;;18.78;30.39;101241.14;104536;1293;73508;-82
2024/03/07 10:22:13;;;;;;;;;;;;;;;18.92;30.44;101240.41;104568;1292;60426;-82
2024/03/07 10:24:39;;;;;;;;;;;;;;;19.05;30.39;101233.61;104344;1293;60674;-81
2024/03/07 10:27:05;;;;;;;;;;;;;;;19.18;30.30;101230.44;104429;1294;60605;-82
2024/03/07 10:29:31;;;;;;;;;;;;;;;19.14;30.15;101234.54;104432;1294;60468;-79
2024/03/07 10:31:57;;;;;;;;;;;;;;;18.89;29.75;101228.80;104302;1294;60576;-80
2024/03/07 10:34:24;;;;;;;;;;;;;;;18.92;30.21;101227.56;104298;1293;59324;-79
2024/03/07 10:36:51;;;;;;;;;;;;;;;19.04;30.23;101228.31;104239;1295;60601;-79
2024/03/07 10:39:21;;;;;;;;;;;;;;;19.17;30.06;101227.27;104149;1294;61189;-80
2024/03/07 10:41:47;;;;;;;;;;;;;;;19.29;30.05;101220.15;104277;1294;60606;-79
2024/03/07 10:44:18;;;;;;;;;;;;;;;19.41;30.24;101224.80;104494;1297;59967;-78
2024/03/07 10:46:44;;;;;;;;;;;;;;;19.52;30.08;101216.33;103921;1294;71586;-81
2024/03/07 10:49:10;;;;;;;;;;;;;;;19.60;30.15;101221.04;104122;1294;60540;-79
2024/03/07 10:51:44;;;;;;;;;;;;;;;19.61;29.99;101218.11;103825;1292;60591;-80
2024/03/07 10:54:12;;;;;;;;;;;;;;;19.61;30.04;101219.40;103779;1294;60552;-80
2024/03/07 10:57:05;;;;;;;;;;;;;;;19.48;29.84;101213.73;103633;1294;72522;-80
2024/03/07 10:59:33;;;;;;;;;;;;;;;19.49;30.41;101211.89;103435;1302;74432;-80
2024/03/07 11:02:00;;;;;;;;;;;;;;;19.43;30.25;101213.98;104206;1304;60443;-81
2024/03/07 11:04:25;;;;;;;;;;;;;;;19.32;30.08;101211.75;103962;1303;59734;-79
2024/03/07 11:06:51;;;;;;;;;;;;;;;19.10;29.79;101211.59;103877;1300;60261;-78
2024/03/07 11:09:22;;;;;;;;;;;;;;;19.01;29.77;101208.73;103833;1303;59682;-83
2024/03/07 11:11:49;;;;;;;;;;;;;;;18.85;29.67;101207.93;103890;1303;60606;-80
2024/03/07 11:14:16;;;;;;;;;;;;;;;18.78;29.59;101213.35;103879;1303;60526;-80
2024/03/07 11:16:42;;;;;;;;;;;;;;;18.73;29.80;101208.04;103862;1302;72188;-79
2024/03/07 11:19:18;;;;;;;;;;;;;;;18.85;29.93;101209.36;103738;1302;60571;-82
2024/03/07 11:21:43;;;;;;;;;;;;;;;19.02;29.93;101209.17;103909;1303;61149;-79
2024/03/07 11:24:10;;;;;;;;;;;;;;;19.15;29.95;101203.44;103755;1303;59325;-80
2024/03/07 11:26:35;;;;;;;;;;;;;;;19.28;29.97;101209.70;103514;1303;60809;-79
2024/03/07 11:29:01;;;;;;;;;;;;;;;19.40;30.04;101203.30;103367;1303;60609;-78
2024/03/07 11:31:27;;;;;;;;;;;;;;;19.53;29.96;101200.39;103559;1302;60602;-80
2024/03/07 11:34:11;;;;;;;;;;;;;;;19.60;29.91;101203.37;103358;1302;60567;-79
2024/03/07 11:36:43;;;;;;;;;;;;;;;19.63;29.84;101204.48;103576;1293;73169;-80
2024/03/07 11:39:31;;;;;;;;;;;;;;;19.60;29.75;101200.13;103880;1293;75932;-80
2024/03/07 11:41:56;;;;;;;;;;;;;;;19.67;29.86;101205.10;104209;1294;60455;-83
2024/03/07 11:44:22;;;;;;;;;;;;;;;19.75;30.06;101201.74;103932;1294;59844;-80
2024/03/07 11:46:48;;;;;;;;;;;;;;;19.87;30.33;101197.02;104160;1297;59307;-79
2024/03/07 11:49:15;;;;;;;;;;;;;;;19.96;30.35;101200.23;104147;1294;60501;-81
2024/03/07 11:51:42;;;;;;;;;;;;;;;20.02;30.27;101190.23;103856;1293;60656;-81
2024/03/07 11:54:07;;;;;;;;;;;;;;;20.03;30.06;101189.06;103723;1293;60522;-79
2024/03/07 11:56:33;;;;;;;;;;;;;;;20.03;30.22;101194.05;103977;1293;60654;-80
2024/03/07 11:58:59;;;;;;;;;;;;;;;19.93;29.76;101185.56;104846;1294;60604;-80
2024/03/07 12:01:27;;;;;;;;;;;;;;;19.81;29.93;101182.73;104730;1295;59293;-82
2024/03/07 12:03:52;;;;;;;;;;;;;;;19.77;29.65;101185.02;105615;1293;58563;-81
2024/03/07 12:06:19;;;;;;;;;;;;;;;19.54;29.45;101187.48;105386;1294;59304;-80
2024/03/07 12:08:46;;;;;;;;;;;;;;;19.38;29.53;101182.70;104741;1293;60558;-80
2024/03/07 12:11:15;;;;;;;;;;;;;;;19.39;29.82;101189.58;104607;1294;58543;-80
2024/03/07 12:13:41;;;;;;;;;;;;;;;19.34;29.66;101194.88;104893;1293;60125;-80
2024/03/07 12:16:08;;;;;;;;;;;;;;;19.09;29.44;101188.64;104702;1294;60382;-80
2024/03/07 12:18:34;;;;;;;;;;;;;;;19.11;29.74;101187.25;104918;1295;73761;-81
2024/03/07 12:21:03;;;;;;;;;;;;;;;19.18;29.75;101183.46;105094;1292;60683;-79
2024/03/07 12:23:28;;;;;;;;;;;;;;;19.22;29.83;101189.34;104871;1293;60470;-80